createdAt,value
2024-03-01T00:01:24.381Z,97075.34
2024-03-01T00:03:55.259Z,97079.06
2024-03-01T00:06:26.018Z,97076.28
2024-03-01T00:08:59.655Z,97079.63
2024-03-01T00:11:30.387Z,97084.94
2024-03-01T00:14:01.009Z,97092.03
2024-03-01T00:16:33.205Z,97088.84
2024-03-01T00:19:03.927Z,97089.41
2024-03-01T00:21:34.519Z,97087.63
2024-03-01T00:24:09.231Z,97092.19
2024-03-01T00:26:39.795Z,97088.22
2024-03-01T00:29:12.508Z,97091.03
2024-03-01T00:31:43.117Z,97090.97
2024-03-01T00:34:13.759Z,97085.97
2024-03-01T00:36:44.399Z,97090.56
2024-03-01T00:39:17.645Z,97089.78
2024-03-01T00:41:48.338Z,97098.28
2024-03-01T00:44:18.995Z,97092.69
2024-03-01T00:46:50.109Z,97092.47
2024-03-01T00:49:20.814Z,97100.19
2024-03-01T00:51:51.438Z,97104.78
2024-03-01T00:54:24.755Z,97103.56
2024-03-01T00:56:55.350Z,97111.66
2024-03-01T00:59:26.180Z,97111.41
2024-03-01T01:01:56.962Z,97111.34
2024-03-01T01:04:27.636Z,97108.84
2024-03-01T01:06:58.266Z,97102.09
2024-03-01T01:09:31.419Z,97097.44
2024-03-01T01:12:02.289Z,97093.94
2024-03-01T01:14:33.481Z,97092.50
2024-03-01T01:17:04.396Z,97091.72
2024-03-01T01:19:37.780Z,97079.78
2024-03-01T01:22:08.355Z,97086.03
2024-03-01T01:24:41.523Z,97096.75
2024-03-01T01:27:12.002Z,97094.22
2024-03-01T01:29:42.412Z,97094.53
2024-03-01T01:32:12.900Z,97087.19
2024-03-01T01:34:43.292Z,97095.53
2024-03-01T01:37:13.691Z,97088.00
2024-03-01T01:39:46.862Z,97092.38
2024-03-01T01:42:17.319Z,97091.06
2024-03-01T01:44:47.998Z,97082.25
2024-03-01T01:47:18.631Z,97080.81
2024-03-01T01:49:49.241Z,97078.41
2024-03-01T01:52:20.148Z,97066.28
2024-03-01T01:54:53.440Z,97070.03
2024-03-01T01:57:24.833Z,97060.59
2024-03-01T01:59:56.464Z,97038.78
2024-03-01T02:02:29.207Z,97038.50
2024-03-01T02:05:00.062Z,97035.06
2024-03-01T02:07:30.845Z,97034.22
2024-03-01T02:10:10.789Z,97036.63
2024-03-01T02:12:41.338Z,97031.81
2024-03-01T02:15:13.296Z,97032.78
2024-03-01T02:17:43.784Z,97035.31
2024-03-01T02:20:15.869Z,97023.06
2024-03-01T02:22:53.240Z,97027.50
2024-03-01T02:25:26.388Z,97029.00
2024-03-01T02:27:56.909Z,97019.50
2024-03-01T02:30:27.197Z,97028.34
2024-03-01T02:32:57.625Z,97020.41
2024-03-01T02:35:27.854Z,97023.31
2024-03-01T02:37:58.088Z,97022.75
2024-03-01T02:40:31.709Z,97033.25
2024-03-01T02:43:02.106Z,97032.16
2024-03-01T02:45:32.578Z,97026.09
2024-03-01T02:48:03.151Z,97027.66
2024-03-01T02:50:33.927Z,97028.66
2024-03-01T02:53:04.579Z,97032.38
2024-03-01T02:55:37.826Z,97032.50
2024-03-01T02:58:09.645Z,97030.66
2024-03-01T03:00:40.347Z,97031.91
2024-03-01T03:03:10.957Z,97036.78
2024-03-01T03:05:41.541Z,97047.78
2024-03-01T03:08:12.381Z,97040.63
2024-03-01T03:10:45.674Z,97033.31
2024-03-01T03:13:16.721Z,97033.31
2024-03-01T03:15:47.339Z,97034.69
2024-03-01T03:18:18.796Z,97036.94
2024-03-01T03:20:49.385Z,97034.31
2024-03-01T03:23:19.967Z,97026.59
2024-03-01T03:25:53.116Z,97034.28
2024-03-01T03:28:23.824Z,97025.00
2024-03-01T03:30:54.534Z,97026.34
2024-03-01T03:33:25.137Z,97026.34
2024-03-01T03:35:56.018Z,97028.13
2024-03-01T03:38:26.598Z,97026.50
2024-03-01T03:41:00.254Z,97035.59
2024-03-01T03:43:30.879Z,97039.50
2024-03-01T03:46:01.447Z,97046.00
2024-03-01T03:48:32.092Z,97049.13
2024-03-01T03:51:02.648Z,97045.78
2024-03-01T03:53:33.637Z,97051.03
2024-03-01T03:56:07.648Z,97052.72
2024-03-01T03:58:38.283Z,97045.47
2024-03-01T04:01:11.211Z,97049.53
2024-03-01T04:03:42.422Z,97055.78
2024-03-01T04:06:13.261Z,97062.63
2024-03-01T04:08:44.267Z,97064.03
2024-03-01T04:11:17.481Z,97066.66
2024-03-01T04:13:48.762Z,97069.56
2024-03-01T04:16:19.619Z,97079.91
2024-03-01T04:18:50.242Z,97082.81
2024-03-01T04:21:20.986Z,97086.53
2024-03-01T04:23:52.390Z,97077.06
2024-03-01T04:26:25.528Z,97082.44
2024-03-01T04:28:56.137Z,97091.25
2024-03-01T04:31:26.739Z,97097.84
2024-03-01T04:33:57.919Z,97091.06
2024-03-01T04:36:28.527Z,97101.63
2024-03-01T04:38:59.092Z,97097.50
2024-03-01T04:41:32.325Z,97099.50
2024-03-01T04:44:03.163Z,97100.50
2024-03-01T04:46:33.755Z,97103.69
2024-03-01T04:49:04.795Z,97112.03
2024-03-01T04:51:35.377Z,97104.78
2024-03-01T04:54:06.230Z,97121.09
2024-03-01T04:56:39.825Z,97116.91
2024-03-01T04:59:12.722Z,97117.88
2024-03-01T05:01:44.582Z,97121.66
2024-03-01T05:04:15.981Z,97114.09
2024-03-01T05:06:46.569Z,97103.44
2024-03-01T05:09:17.364Z,97109.84
2024-03-01T05:11:50.519Z,97107.78
2024-03-01T05:14:22.859Z,97116.19
2024-03-01T05:16:53.461Z,97119.66
2024-03-01T05:19:24.091Z,97119.31
2024-03-01T05:21:54.726Z,97118.88
2024-03-01T05:24:25.287Z,97127.19
2024-03-01T05:27:00.878Z,97125.72
2024-03-01T05:29:31.488Z,97123.63
2024-03-01T05:32:02.051Z,97116.69
2024-03-01T05:34:33.360Z,97125.03
2024-03-01T05:37:04.086Z,97127.38
2024-03-01T05:39:34.747Z,97132.66
2024-03-01T05:42:08.952Z,97135.75
2024-03-01T05:44:39.539Z,97134.44
2024-03-01T05:47:10.141Z,97138.16
2024-03-01T05:49:40.760Z,97140.69
2024-03-01T05:52:11.344Z,97141.16
2024-03-01T05:54:41.926Z,97151.34
2024-03-01T05:57:16.271Z,97138.09
2024-03-01T05:59:47.101Z,97136.81
2024-03-01T06:02:17.756Z,97147.66
2024-03-01T06:04:48.536Z,97142.97
2024-03-01T06:07:19.334Z,97151.13
2024-03-01T06:09:50.148Z,97146.06
2024-03-01T06:12:23.345Z,97148.94
2024-03-01T06:14:53.950Z,97148.44
2024-03-01T06:17:24.618Z,97151.13
2024-03-01T06:19:55.201Z,97153.28
2024-03-01T06:22:25.799Z,97157.69
2024-03-01T06:24:56.456Z,97163.19
2024-03-01T06:27:29.657Z,97156.50
2024-03-01T06:30:00.222Z,97151.53
2024-03-01T06:32:30.849Z,97161.72
2024-03-01T06:35:01.512Z,97164.19
2024-03-01T06:37:32.310Z,97166.63
2024-03-01T06:40:06.562Z,97165.88
2024-03-01T06:42:39.784Z,97163.53
2024-03-01T06:45:11.986Z,97162.66
2024-03-01T06:47:42.650Z,97159.78
2024-03-01T06:50:13.656Z,97164.13
2024-03-01T06:52:44.284Z,97167.53
2024-03-01T06:55:15.272Z,97167.81
2024-03-01T06:57:48.670Z,97166.75
2024-03-01T07:00:20.365Z,97167.16
2024-03-01T07:02:50.896Z,97159.41
2024-03-01T07:05:22.318Z,97158.81
2024-03-01T07:07:52.870Z,97157.84
2024-03-01T07:10:23.647Z,97167.25
2024-03-01T07:12:57.427Z,97158.00
2024-03-01T07:15:28.660Z,97156.16
2024-03-01T07:17:59.661Z,97154.38
2024-03-01T07:20:30.555Z,97161.13
2024-03-01T07:23:01.162Z,97154.56
2024-03-01T07:25:31.915Z,97149.03
2024-03-01T07:28:06.636Z,97145.06
2024-03-01T07:30:37.259Z,97136.63
2024-03-01T07:33:08.701Z,97143.88
2024-03-01T07:35:39.421Z,97141.63
2024-03-01T07:38:09.995Z,97140.84
2024-03-01T07:40:40.750Z,97148.50
2024-03-01T07:43:14.019Z,97141.63
2024-03-01T07:45:44.776Z,97145.97
2024-03-01T07:48:15.417Z,97153.09
2024-03-01T07:50:46.140Z,97148.50
2024-03-01T07:53:16.789Z,97144.31
2024-03-01T07:55:48.716Z,97143.97
2024-03-01T07:58:22.656Z,97143.44
2024-03-01T08:00:53.468Z,97143.84
2024-03-01T08:03:24.107Z,97154.41
2024-03-01T08:05:54.759Z,97147.34
2024-03-01T08:08:38.029Z,97157.31
2024-03-01T08:11:12.154Z,97148.72
2024-03-01T08:13:46.365Z,97147.97
2024-03-01T08:16:19.832Z,97144.22
2024-03-01T08:18:50.561Z,97144.41
2024-03-01T08:21:22.255Z,97145.63
2024-03-01T08:23:53.148Z,97150.47
2024-03-01T08:26:28.135Z,97159.63
2024-03-01T08:29:04.362Z,97154.97
2024-03-01T08:31:37.922Z,97165.13
2024-03-01T08:34:14.534Z,97161.22
2024-03-01T08:36:45.140Z,97161.63
2024-03-01T08:39:19.303Z,97162.97
2024-03-01T08:41:50.814Z,97151.84
2024-03-01T08:44:55.437Z,97165.09
2024-03-01T08:47:31.646Z,97158.06
2024-03-01T08:50:35.159Z,97157.22
2024-03-01T08:53:07.826Z,97165.97
2024-03-01T08:55:45.701Z,97166.50
2024-03-01T08:58:26.949Z,97168.06
2024-03-01T09:01:00.841Z,97175.81
2024-03-01T09:03:33.950Z,97166.91
2024-03-01T09:06:08.104Z,97176.44
2024-03-01T09:08:41.011Z,97179.34
2024-03-01T09:11:15.396Z,97176.97
2024-03-01T09:13:46.006Z,97169.44
2024-03-01T09:16:22.882Z,97171.19
2024-03-01T09:18:54.455Z,97179.56
2024-03-01T09:21:45.198Z,97183.72
2024-03-01T09:24:20.090Z,97181.44
2024-03-01T09:26:51.597Z,97187.31
2024-03-01T09:29:41.173Z,97179.53
2024-03-01T09:32:14.733Z,97184.81
2024-03-01T09:34:47.129Z,97184.63
2024-03-01T09:37:22.550Z,97186.56
2024-03-01T09:39:53.481Z,97186.38
2024-03-01T09:42:38.370Z,97186.75
2024-03-01T09:45:47.181Z,97186.59
2024-03-01T09:48:38.034Z,97190.91
2024-03-01T09:51:34.865Z,97194.41
2024-03-01T09:54:20.661Z,97194.41
2024-03-01T09:57:04.586Z,97199.28
2024-03-01T09:59:40.648Z,97200.25
2024-03-01T10:02:21.373Z,97207.28
2024-03-01T10:05:14.087Z,97205.34
2024-03-01T10:07:52.218Z,97201.25
2024-03-01T10:10:50.360Z,97195.38
2024-03-01T10:13:30.696Z,97193.22
2024-03-01T10:16:14.658Z,97195.19
2024-03-01T10:19:06.358Z,97196.34
2024-03-01T10:21:53.976Z,97201.19
2024-03-01T10:24:36.799Z,97204.09
2024-03-01T10:27:15.673Z,97206.97
2024-03-01T10:30:01.005Z,97206.66
2024-03-01T10:32:44.553Z,97208.22
2024-03-01T10:35:23.455Z,97197.66
2024-03-01T10:38:06.803Z,97202.50
2024-03-01T10:40:44.128Z,97209.31
2024-03-01T10:43:21.924Z,97209.69
2024-03-01T10:46:03.253Z,97204.75
2024-03-01T10:48:41.938Z,97206.34
2024-03-01T10:51:19.065Z,97207.41
2024-03-01T10:53:56.919Z,97212.50
2024-03-01T10:56:28.033Z,97202.34
2024-03-01T10:59:04.123Z,97197.19
2024-03-01T11:01:42.187Z,97200.38
2024-03-01T11:04:22.377Z,97192.09
2024-03-01T11:07:05.311Z,97191.88
2024-03-01T11:09:49.397Z,97191.31
2024-03-01T11:12:25.286Z,97187.56
2024-03-01T11:15:09.194Z,97187.19
2024-03-01T11:17:42.939Z,97176.88
2024-03-01T11:20:17.248Z,97173.34
2024-03-01T11:22:57.366Z,97178.38
2024-03-01T11:25:56.814Z,97170.88
2024-03-01T11:28:31.409Z,97169.72
2024-03-01T11:31:10.426Z,97171.09
2024-03-01T11:33:45.570Z,97170.28
2024-03-01T11:36:32.944Z,97168.13
2024-03-01T11:39:12.173Z,97171.09
2024-03-01T11:41:54.608Z,97166.72
2024-03-01T11:44:36.874Z,97156.84
2024-03-01T11:47:19.802Z,97158.13
2024-03-01T11:50:30.437Z,97155.75
2024-03-01T11:53:15.134Z,97159.16
2024-03-01T11:56:08.959Z,97152.06
2024-03-01T11:58:48.368Z,97156.03
2024-03-01T12:01:30.879Z,97143.13
2024-03-01T12:04:37.868Z,97142.13
2024-03-01T12:07:26.530Z,97141.56
2024-03-01T12:10:07.462Z,97139.06
2024-03-01T12:12:46.981Z,97131.31
2024-03-01T12:15:24.587Z,97130.63
2024-03-01T12:18:06.161Z,97126.25
2024-03-01T12:20:39.765Z,97128.09
2024-03-01T12:23:32.698Z,97129.44
2024-03-01T12:26:04.120Z,97136.31
2024-03-01T12:28:53.106Z,97127.84
2024-03-01T12:31:39.124Z,97128.66
2024-03-01T12:34:35.005Z,97115.56
2024-03-01T12:37:23.422Z,97116.00
2024-03-01T12:40:17.858Z,97107.31
2024-03-01T12:43:21.469Z,97111.50
2024-03-01T12:46:12.788Z,97100.78
2024-03-01T12:48:55.729Z,97099.69
2024-03-01T12:51:31.544Z,97100.47
2024-03-01T12:54:08.752Z,97097.84
2024-03-01T12:56:51.305Z,97091.66
2024-03-01T12:59:40.425Z,97096.41
2024-03-01T13:02:41.550Z,97086.59
2024-03-01T13:05:26.164Z,97085.25
2024-03-01T13:07:59.022Z,97077.00
2024-03-01T13:10:31.884Z,97081.41
2024-03-01T13:13:09.070Z,97087.91
2024-03-01T13:15:45.231Z,97079.53
2024-03-01T13:18:18.496Z,97085.28
2024-03-01T13:21:00.101Z,97082.28
2024-03-01T13:23:41.539Z,97077.56
2024-03-01T13:26:35.564Z,97074.72
2024-03-01T13:29:09.878Z,97082.56
2024-03-01T13:31:49.959Z,97064.78
2024-03-01T13:34:24.406Z,97070.16
2024-03-01T13:37:10.986Z,97065.03
2024-03-01T13:39:49.302Z,97076.06
2024-03-01T13:42:40.501Z,97080.31
2024-03-01T13:45:16.217Z,97070.94
2024-03-01T13:47:50.872Z,97076.06
2024-03-01T13:50:27.705Z,97076.31
2024-03-01T13:53:02.332Z,97068.28
2024-03-01T13:55:33.322Z,97064.00
2024-03-01T13:58:05.182Z,97064.22
2024-03-01T14:00:36.957Z,97062.06
2024-03-01T14:03:09.756Z,97058.47
2024-03-01T14:05:40.526Z,97065.22
2024-03-01T14:08:14.164Z,97062.41
2024-03-01T14:10:48.272Z,97062.69
2024-03-01T14:13:19.818Z,97062.34
2024-03-01T14:15:51.538Z,97059.41
2024-03-01T14:18:23.395Z,97060.38
2024-03-01T14:20:56.085Z,97058.56
2024-03-01T14:23:29.547Z,97063.34
2024-03-01T14:26:00.880Z,97059.34
2024-03-01T14:28:31.958Z,97056.78
2024-03-01T14:31:03.629Z,97061.66
2024-03-01T14:33:35.377Z,97062.09
2024-03-01T14:36:09.108Z,97060.81
2024-03-01T14:38:55.785Z,97061.44
2024-03-01T14:41:41.674Z,97059.13
2024-03-01T14:44:13.206Z,97055.50
2024-03-01T14:46:44.396Z,97053.19
2024-03-01T14:49:19.270Z,97061.84
2024-03-01T14:51:51.792Z,97063.34
2024-03-01T14:54:27.635Z,97056.94
2024-03-01T14:56:58.514Z,97055.72
2024-03-01T14:59:29.132Z,97056.22
2024-03-01T15:02:00.256Z,97058.34
2024-03-01T15:04:31.031Z,97055.00
2024-03-01T15:07:02.613Z,97056.59
2024-03-01T15:09:45.976Z,97058.03
2024-03-01T15:12:17.209Z,97056.38
2024-03-01T15:14:47.769Z,97058.47
2024-03-01T15:17:21.408Z,97054.53
2024-03-01T15:19:54.644Z,97049.91
2024-03-01T15:22:25.435Z,97055.00
2024-03-01T15:25:09.863Z,97052.97
2024-03-01T15:27:40.619Z,97052.78
2024-03-01T15:30:12.789Z,97052.63
2024-03-01T15:32:43.381Z,97055.06
2024-03-01T15:35:14.032Z,97060.91
2024-03-01T15:37:44.707Z,97052.19
2024-03-01T15:40:18.565Z,97049.44
2024-03-01T15:42:49.177Z,97044.63
2024-03-01T15:45:20.346Z,97053.41
2024-03-01T15:47:50.947Z,97052.28
2024-03-01T15:50:21.662Z,97056.28
2024-03-01T15:52:54.278Z,97055.81
2024-03-01T15:55:27.540Z,97054.38
2024-03-01T15:57:58.663Z,97046.88
2024-03-01T16:00:29.334Z,97048.34
2024-03-01T16:03:00.330Z,97043.00
2024-03-01T16:05:31.033Z,97045.66
2024-03-01T16:08:01.794Z,97047.44
2024-03-01T16:10:35.119Z,97050.16
2024-03-01T16:13:06.407Z,97052.69
2024-03-01T16:15:37.016Z,97055.81
2024-03-01T16:18:08.381Z,97054.28
2024-03-01T16:20:38.969Z,97051.16
2024-03-01T16:23:12.382Z,97055.97
2024-03-01T16:25:46.030Z,97049.09
2024-03-01T16:28:26.389Z,97052.25
2024-03-01T16:31:01.661Z,97053.44
2024-03-01T16:33:33.463Z,97045.31
2024-03-01T16:36:10.331Z,97046.94
2024-03-01T16:38:43.636Z,97049.97
2024-03-01T16:41:38.618Z,97040.50
2024-03-01T16:44:15.996Z,97042.72
2024-03-01T16:46:46.825Z,97042.56
2024-03-01T16:49:36.686Z,97034.41
2024-03-01T16:52:08.961Z,97039.00
2024-03-01T16:54:40.137Z,97037.44
2024-03-01T16:57:15.071Z,97035.72
2024-03-01T16:59:45.695Z,97034.75
2024-03-01T17:02:35.076Z,97038.91
2024-03-01T17:05:13.696Z,97042.88
2024-03-01T17:07:49.688Z,97035.06
2024-03-01T17:10:26.225Z,97041.56
2024-03-01T17:13:00.733Z,97040.41
2024-03-01T17:15:32.149Z,97042.78
2024-03-01T17:18:06.610Z,97036.34
2024-03-01T17:20:37.238Z,97036.38
2024-03-01T17:23:07.870Z,97039.53
2024-03-01T17:25:38.556Z,97043.88
2024-03-01T17:28:12.359Z,97042.94
2024-03-01T17:30:43.434Z,97049.78
2024-03-01T17:33:14.345Z,97045.09
2024-03-01T17:35:46.844Z,97043.94
2024-03-01T17:38:17.540Z,97045.13
2024-03-01T17:40:48.512Z,97053.72
2024-03-01T17:43:21.918Z,97046.34
2024-03-01T17:45:52.685Z,97056.50
2024-03-01T17:48:23.936Z,97056.50
2024-03-01T17:50:54.592Z,97063.53
2024-03-01T17:53:25.165Z,97053.59
2024-03-01T17:55:56.714Z,97058.84
2024-03-01T17:58:29.995Z,97065.13
2024-03-01T18:01:02.603Z,97064.91
2024-03-01T18:03:33.277Z,97060.63
2024-03-01T18:06:07.155Z,97060.63
2024-03-01T18:08:38.534Z,97061.63
2024-03-01T18:11:09.109Z,97062.38
2024-03-01T18:13:42.491Z,97059.06
2024-03-01T18:16:14.703Z,97053.19
2024-03-01T18:18:45.770Z,97060.44
2024-03-01T18:21:16.353Z,97052.81
2024-03-01T18:23:46.968Z,97050.66
2024-03-01T18:26:17.530Z,97052.63
2024-03-01T18:28:51.112Z,97044.44
2024-03-01T18:31:22.472Z,97040.91
2024-03-01T18:33:53.383Z,97041.31
2024-03-01T18:36:24.014Z,97034.69
2024-03-01T18:38:55.205Z,97039.38
2024-03-01T18:41:25.908Z,97034.50
2024-03-01T18:43:59.150Z,97031.19
2024-03-01T18:46:31.020Z,97032.78
2024-03-01T18:49:02.297Z,97037.06
2024-03-01T18:51:34.531Z,97034.56
2024-03-01T18:54:05.377Z,97038.25
2024-03-01T18:56:36.786Z,97038.66
2024-03-01T18:59:11.063Z,97035.53
2024-03-01T19:01:41.984Z,97033.44
2024-03-01T19:04:12.690Z,97031.66
2024-03-01T19:06:43.403Z,97035.19
2024-03-01T19:09:11.485Z,97029.31
2024-03-01T19:11:42.678Z,97031.88
2024-03-01T19:14:16.788Z,97030.09
2024-03-01T19:16:47.432Z,97027.78
2024-03-01T19:19:18.149Z,97030.69
2024-03-01T19:21:49.633Z,97026.81
2024-03-01T19:24:20.375Z,97019.19
2024-03-01T19:26:53.173Z,97020.78
2024-03-01T19:29:26.400Z,97020.97
2024-03-01T19:31:56.997Z,97019.19
2024-03-01T19:34:28.689Z,97015.69
2024-03-01T19:36:59.419Z,97016.50
2024-03-01T19:39:30.352Z,97021.56
2024-03-01T19:42:00.979Z,97012.00
2024-03-01T19:44:34.270Z,97017.63
2024-03-01T19:47:05.198Z,97015.69
2024-03-01T19:49:38.200Z,97021.94
2024-03-01T19:52:09.499Z,97029.75
2024-03-01T19:54:40.133Z,97024.69
2024-03-01T19:57:10.826Z,97023.50
2024-03-01T19:59:44.062Z,97019.22
2024-03-01T20:02:14.656Z,97014.91
2024-03-01T20:04:45.218Z,97008.06
2024-03-01T20:07:15.915Z,97009.44
2024-03-01T20:09:46.968Z,97015.84
2024-03-01T20:12:17.548Z,97012.34
2024-03-01T20:14:51.779Z,97012.94
2024-03-01T20:17:22.442Z,97014.09
2024-03-01T20:19:53.042Z,97019.50
2024-03-01T20:22:23.658Z,97008.94
2024-03-01T20:24:54.319Z,97015.94
2024-03-01T20:27:25.081Z,97012.41
2024-03-01T20:29:58.308Z,97008.25
2024-03-01T20:32:28.949Z,97009.97
2024-03-01T20:34:59.504Z,97002.75
2024-03-01T20:37:30.775Z,97000.75
2024-03-01T20:40:01.696Z,97009.03
2024-03-01T20:42:32.390Z,97004.06
2024-03-01T20:45:05.701Z,97004.59
2024-03-01T20:47:36.271Z,96996.75
2024-03-01T20:50:09.131Z,97000.19
2024-03-01T20:52:39.747Z,96986.50
2024-03-01T20:55:11.139Z,96986.44
2024-03-01T20:57:41.747Z,96984.63
2024-03-01T21:00:17.190Z,96979.34
2024-03-01T21:02:47.960Z,96973.28
2024-03-01T21:05:18.643Z,96968.97
2024-03-01T21:07:49.327Z,96967.16
2024-03-01T21:10:20.200Z,96971.00
2024-03-01T21:12:50.814Z,96969.69
2024-03-01T21:15:24.142Z,96964.94
2024-03-01T21:17:57.503Z,96966.63
2024-03-01T21:20:29.560Z,96959.22
2024-03-01T21:23:00.303Z,96960.81
2024-03-01T21:25:30.972Z,96956.47
2024-03-01T21:28:01.715Z,96958.81
2024-03-01T21:30:34.875Z,96953.75
2024-03-01T21:33:05.765Z,96953.72
2024-03-01T21:35:38.014Z,96947.44
2024-03-01T21:38:09.095Z,96946.25
2024-03-01T21:40:40.239Z,96944.25
2024-03-01T21:43:11.005Z,96946.59
2024-03-01T21:45:44.243Z,96943.13
2024-03-01T21:48:15.657Z,96945.28
2024-03-01T21:50:46.465Z,96939.28
2024-03-01T21:53:17.665Z,96939.63
2024-03-01T21:55:48.314Z,96930.63
2024-03-01T21:58:18.953Z,96936.09
2024-03-01T22:00:52.211Z,96936.44
2024-03-01T22:03:22.870Z,96938.31
2024-03-01T22:05:53.485Z,96938.31
2024-03-01T22:08:24.323Z,96932.03
2024-03-01T22:10:54.936Z,96928.84
2024-03-01T22:13:25.535Z,96926.25
2024-03-01T22:15:58.866Z,96927.59
2024-03-01T22:18:29.499Z,96920.72
2024-03-01T22:21:00.183Z,96930.63
2024-03-01T22:23:30.787Z,96920.56
2024-03-01T22:26:01.577Z,96923.22
2024-03-01T22:28:32.298Z,96926.97
2024-03-01T22:31:05.653Z,96929.34
2024-03-01T22:33:36.385Z,96926.97
2024-03-01T22:36:07.634Z,96930.06
2024-03-01T22:38:38.679Z,96931.59
2024-03-01T22:41:10.010Z,96929.28
2024-03-01T22:43:40.906Z,96914.25
2024-03-01T22:46:14.389Z,96920.94
2024-03-01T22:48:45.214Z,96915.53
2024-03-01T22:51:16.284Z,96915.47
2024-03-01T22:53:47.346Z,96916.66
2024-03-01T22:56:20.939Z,96916.66
2024-03-01T22:58:53.252Z,96911.97
2024-03-01T23:01:28.518Z,96904.25
2024-03-01T23:04:01.174Z,96907.56
2024-03-01T23:06:31.953Z,96912.41
2024-03-01T23:09:04.139Z,96913.63
2024-03-01T23:11:41.480Z,96903.72
2024-03-01T23:14:46.211Z,96905.03
2024-03-01T23:17:19.787Z,96913.47
2024-03-01T23:19:50.503Z,96911.38
2024-03-01T23:22:24.991Z,96920.31
2024-03-01T23:24:55.631Z,96918.22
2024-03-01T23:27:26.662Z,96924.22
2024-03-01T23:29:57.292Z,96911.03
2024-03-01T23:32:30.451Z,96929.94
2024-03-01T23:35:01.035Z,96930.75
2024-03-01T23:37:31.681Z,96939.44
2024-03-01T23:40:02.337Z,96926.50
2024-03-01T23:42:32.996Z,96931.59
2024-03-01T23:45:03.558Z,96936.91
2024-03-01T23:47:37.293Z,96938.28
2024-03-01T23:50:10.734Z,96926.72
2024-03-01T23:52:42.471Z,96935.75
2024-03-01T23:55:15.538Z,96932.09
2024-03-01T23:57:46.119Z,96934.25
